sensor_id;sensor_type;location;lat;lon;timestamp;P1;durP1;ratioP1;P2;durP2;ratioP2
53881;SDS011;39794;55.782;37.452;2022-08-01T00:06:38;5.75;;;2.15;;
53881;SDS011;39794;55.782;37.452;2022-08-01T00:12:03;6.78;;;2.53;;
53881;SDS011;39794;55.782;37.452;2022-08-01T00:14:33;3.50;;;2.10;;
53881;SDS011;39794;55.782;37.452;2022-08-01T00:17:01;5.78;;;2.17;;
53881;SDS011;39794;55.782;37.452;2022-08-01T00:22:31;6.55;;;2.20;;
53881;SDS011;39794;55.782;37.452;2022-08-01T00:25:04;5.20;;;2.22;;
53881;SDS011;39794;55.782;37.452;2022-08-01T00:27:33;3.10;;;1.92;;
53881;SDS011;39794;55.782;37.452;2022-08-01T00:30:07;3.58;;;2.20;;
53881;SDS011;39794;55.782;37.452;2022-08-01T00:32:41;4.20;;;2.15;;
53881;SDS011;39794;55.782;37.452;2022-08-01T00:35:10;5.65;;;1.92;;
53881;SDS011;39794;55.782;37.452;2022-08-01T00:37:38;2.88;;;2.00;;
53881;SDS011;39794;55.782;37.452;2022-08-01T00:40:09;3.22;;;1.80;;
53881;SDS011;39794;55.782;37.452;2022-08-01T00:42:38;4.32;;;2.45;;
53881;SDS011;39794;55.782;37.452;2022-08-01T00:45:10;3.50;;;1.95;;
53881;SDS011;39794;55.782;37.452;2022-08-01T00:47:40;4.80;;;2.20;;
53881;SDS011;39794;55.782;37.452;2022-08-01T00:50:09;4.28;;;1.83;;
53881;SDS011;39794;55.782;37.452;2022-08-01T00:52:42;2.80;;;1.90;;
53881;SDS011;39794;55.782;37.452;2022-08-01T00:55:20;4.70;;;2.13;;
53881;SDS011;39794;55.782;37.452;2022-08-01T00:57:55;7.18;;;1.85;;
53881;SDS011;39794;55.782;37.452;2022-08-01T01:00:32;3.00;;;1.83;;
53881;SDS011;39794;55.782;37.452;2022-08-01T01:03:22;3.38;;;2.05;;
53881;SDS011;39794;55.782;37.452;2022-08-01T01:09:03;4.28;;;1.92;;
53881;SDS011;39794;55.782;37.452;2022-08-01T01:12:12;3.47;;;2.08;;
53881;SDS011;39794;55.782;37.452;2022-08-01T01:14:49;3.63;;;2.10;;
53881;SDS011;39794;55.782;37.452;2022-08-01T01:17:24;3.25;;;1.95;;
53881;SDS011;39794;55.782;37.452;2022-08-01T01:22:53;4.65;;;2.13;;
53881;SDS011;39794;55.782;37.452;2022-08-01T01:25:36;2.23;;;1.83;;
53881;SDS011;39794;55.782;37.452;2022-08-01T01:28:15;6.95;;;2.03;;
53881;SDS011;39794;55.782;37.452;2022-08-01T01:30:53;3.58;;;2.40;;
53881;SDS011;39794;55.782;37.452;2022-08-01T01:33:27;3.85;;;2.08;;
53881;SDS011;39794;55.782;37.452;2022-08-01T01:35:59;5.22;;;2.35;;
53881;SDS011;39794;55.782;37.452;2022-08-01T01:38:38;9.30;;;2.50;;
53881;SDS011;39794;55.782;37.452;2022-08-01T01:41:10;4.95;;;1.98;;
53881;SDS011;39794;55.782;37.452;2022-08-01T01:43:39;4.15;;;2.33;;
53881;SDS011;39794;55.782;37.452;2022-08-01T01:46:10;6.13;;;2.53;;
53881;SDS011;39794;55.782;37.452;2022-08-01T01:48:39;5.22;;;2.30;;
53881;SDS011;39794;55.782;37.452;2022-08-01T01:51:11;4.45;;;2.33;;
53881;SDS011;39794;55.782;37.452;2022-08-01T01:53:41;4.82;;;2.58;;
53881;SDS011;39794;55.782;37.452;2022-08-01T01:56:11;6.55;;;2.25;;
53881;SDS011;39794;55.782;37.452;2022-08-01T01:58:43;3.67;;;2.15;;
53881;SDS011;39794;55.782;37.452;2022-08-01T02:01:13;7.45;;;2.60;;
53881;SDS011;39794;55.782;37.452;2022-08-01T02:04:05;4.18;;;2.30;;
53881;SDS011;39794;55.782;37.452;2022-08-01T02:06:34;8.68;;;2.97;;
53881;SDS011;39794;55.782;37.452;2022-08-01T02:09:05;5.75;;;2.90;;
53881;SDS011;39794;55.782;37.452;2022-08-01T02:11:59;7.18;;;2.50;;
53881;SDS011;39794;55.782;37.452;2022-08-01T02:15:00;8.20;;;2.70;;
53881;SDS011;39794;55.782;37.452;2022-08-01T02:17:32;4.53;;;2.42;;
53881;SDS011;39794;55.782;37.452;2022-08-01T02:20:07;4.68;;;2.95;;
53881;SDS011;39794;55.782;37.452;2022-08-01T02:22:37;5.07;;;2.17;;
53881;SDS011;39794;55.782;37.452;2022-08-01T02:25:10;3.88;;;2.72;;
53881;SDS011;39794;55.782;37.452;2022-08-01T02:27:47;6.63;;;3.25;;
53881;SDS011;39794;55.782;37.452;2022-08-01T02:30:20;4.97;;;2.75;;
53881;SDS011;39794;55.782;37.452;2022-08-01T02:32:53;4.78;;;2.58;;
53881;SDS011;39794;55.782;37.452;2022-08-01T02:35:27;5.57;;;2.58;;
53881;SDS011;39794;55.782;37.452;2022-08-01T02:37:57;4.00;;;2.28;;
53881;SDS011;39794;55.782;37.452;2022-08-01T02:40:28;6.28;;;2.22;;
53881;SDS011;39794;55.782;37.452;2022-08-01T02:42:59;6.15;;;2.40;;
53881;SDS011;39794;55.782;37.452;2022-08-01T02:45:28;5.35;;;2.25;;
53881;SDS011;39794;55.782;37.452;2022-08-01T02:48:00;6.28;;;2.30;;
53881;SDS011;39794;55.782;37.452;2022-08-01T02:50:31;4.97;;;2.15;;
53881;SDS011;39794;55.782;37.452;2022-08-01T02:53:52;4.90;;;2.40;;
53881;SDS011;39794;55.782;37.452;2022-08-01T02:56:21;6.78;;;2.47;;
53881;SDS011;39794;55.782;37.452;2022-08-01T02:58:52;7.72;;;2.55;;
53881;SDS011;39794;55.782;37.452;2022-08-01T03:01:21;5.50;;;2.58;;
53881;SDS011;39794;55.782;37.452;2022-08-01T03:07:25;5.47;;;2.13;;
53881;SDS011;39794;55.782;37.452;2022-08-01T03:10:02;6.65;;;2.60;;
53881;SDS011;39794;55.782;37.452;2022-08-01T03:12:33;5.25;;;2.38;;
53881;SDS011;39794;55.782;37.452;2022-08-01T03:15:02;7.55;;;2.55;;
53881;SDS011;39794;55.782;37.452;2022-08-01T03:17:35;5.20;;;2.67;;
53881;SDS011;39794;55.782;37.452;2022-08-01T03:20:08;6.00;;;2.70;;
53881;SDS011;39794;55.782;37.452;2022-08-01T03:22:46;6.93;;;2.55;;
53881;SDS011;39794;55.782;37.452;2022-08-01T03:25:22;7.55;;;2.40;;
53881;SDS011;39794;55.782;37.452;2022-08-01T03:27:54;9.80;;;2.65;;
53881;SDS011;39794;55.782;37.452;2022-08-01T03:33:23;5.30;;;2.35;;
53881;SDS011;39794;55.782;37.452;2022-08-01T03:35:54;3.00;;;2.42;;
53881;SDS011;39794;55.782;37.452;2022-08-01T03:38:25;4.25;;;2.55;;
53881;SDS011;39794;55.782;37.452;2022-08-01T03:40:59;5.43;;;2.40;;
53881;SDS011;39794;55.782;37.452;2022-08-01T03:43:32;6.10;;;2.88;;
53881;SDS011;39794;55.782;37.452;2022-08-01T03:46:05;4.82;;;2.63;;
53881;SDS011;39794;55.782;37.452;2022-08-01T03:48:36;4.45;;;2.60;;
53881;SDS011;39794;55.782;37.452;2022-08-01T03:51:10;5.53;;;2.58;;
53881;SDS011;39794;55.782;37.452;2022-08-01T03:54:03;4.97;;;2.63;;
53881;SDS011;39794;55.782;37.452;2022-08-01T03:56:36;7.60;;;2.80;;
53881;SDS011;39794;55.782;37.452;2022-08-01T03:59:05;7.35;;;2.55;;
53881;SDS011;39794;55.782;37.452;2022-08-01T04:01:34;7.03;;;2.35;;
53881;SDS011;39794;55.782;37.452;2022-08-01T04:04:04;5.85;;;3.00;;
53881;SDS011;39794;55.782;37.452;2022-08-01T04:07:03;8.00;;;2.80;;
53881;SDS011;39794;55.782;37.452;2022-08-01T04:09:36;6.10;;;2.55;;
53881;SDS011;39794;55.782;37.452;2022-08-01T04:12:07;4.22;;;2.60;;
53881;SDS011;39794;55.782;37.452;2022-08-01T04:14:43;7.53;;;3.22;;
53881;SDS011;39794;55.782;37.452;2022-08-01T04:17:12;9.88;;;3.25;;
53881;SDS011;39794;55.782;37.452;2022-08-01T04:19:42;6.95;;;3.08;;
53881;SDS011;39794;55.782;37.452;2022-08-01T04:22:13;10.35;;;3.17;;
53881;SDS011;39794;55.782;37.452;2022-08-01T04:24:48;8.88;;;3.08;;
53881;SDS011;39794;55.782;37.452;2022-08-01T04:27:23;11.60;;;3.00;;
53881;SDS011;39794;55.782;37.452;2022-08-01T04:30:15;8.63;;;3.35;;
53881;SDS011;39794;55.782;37.452;2022-08-01T04:32:46;9.00;;;3.10;;
53881;SDS011;39794;55.782;37.452;2022-08-01T04:35:16;10.70;;;3.55;;
53881;SDS011;39794;55.782;37.452;2022-08-01T04:38:10;10.23;;;3.38;;
53881;SDS011;39794;55.782;37.452;2022-08-01T04:43:39;5.18;;;2.47;;
53881;SDS011;39794;55.782;37.452;2022-08-01T04:46:10;5.38;;;3.10;;
53881;SDS011;39794;55.782;37.452;2022-08-01T04:48:39;9.65;;;3.10;;
53881;SDS011;39794;55.782;37.452;2022-08-01T04:51:12;7.20;;;2.47;;
53881;SDS011;39794;55.782;37.452;2022-08-01T04:53:50;7.45;;;2.58;;
53881;SDS011;39794;55.782;37.452;2022-08-01T04:56:19;7.38;;;2.47;;
53881;SDS011;39794;55.782;37.452;2022-08-01T04:58:48;11.05;;;4.15;;
53881;SDS011;39794;55.782;37.452;2022-08-01T05:02:11;8.10;;;3.22;;
53881;SDS011;39794;55.782;37.452;2022-08-01T05:04:43;11.05;;;2.83;;
53881;SDS011;39794;55.782;37.452;2022-08-01T05:07:13;7.47;;;2.80;;
53881;SDS011;39794;55.782;37.452;2022-08-01T05:09:44;5.15;;;2.40;;
53881;SDS011;39794;55.782;37.452;2022-08-01T05:12:17;7.93;;;2.28;;
53881;SDS011;39794;55.782;37.452;2022-08-01T05:14:47;5.70;;;2.63;;
53881;SDS011;39794;55.782;37.452;2022-08-01T05:17:15;6.70;;;2.05;;
53881;SDS011;39794;55.782;37.452;2022-08-01T05:19:46;7.40;;;2.33;;
53881;SDS011;39794;55.782;37.452;2022-08-01T05:22:16;7.63;;;2.00;;
53881;SDS011;39794;55.782;37.452;2022-08-01T05:24:46;6.07;;;1.85;;
53881;SDS011;39794;55.782;37.452;2022-08-01T05:27:17;5.57;;;2.33;;
53881;SDS011;39794;55.782;37.452;2022-08-01T05:29:45;4.38;;;1.98;;
53881;SDS011;39794;55.782;37.452;2022-08-01T05:32:18;6.80;;;2.55;;
53881;SDS011;39794;55.782;37.452;2022-08-01T05:34:48;10.00;;;2.30;;
53881;SDS011;39794;55.782;37.452;2022-08-01T05:37:17;6.95;;;2.42;;
53881;SDS011;39794;55.782;37.452;2022-08-01T05:39:47;6.82;;;2.25;;
53881;SDS011;39794;55.782;37.452;2022-08-01T05:42:17;6.60;;;2.55;;
53881;SDS011;39794;55.782;37.452;2022-08-01T05:44:46;9.05;;;2.45;;
53881;SDS011;39794;55.782;37.452;2022-08-01T05:47:17;7.50;;;2.30;;
53881;SDS011;39794;55.782;37.452;2022-08-01T05:52:43;9.52;;;2.72;;
53881;SDS011;39794;55.782;37.452;2022-08-01T05:55:19;6.15;;;1.98;;
53881;SDS011;39794;55.782;37.452;2022-08-01T05:57:51;4.53;;;2.22;;
53881;SDS011;39794;55.782;37.452;2022-08-01T06:00:21;7.18;;;2.42;;
53881;SDS011;39794;55.782;37.452;2022-08-01T06:02:51;7.25;;;2.67;;
53881;SDS011;39794;55.782;37.452;2022-08-01T06:05:22;3.35;;;1.80;;
53881;SDS011;39794;55.782;37.452;2022-08-01T06:07:51;8.45;;;2.20;;
53881;SDS011;39794;55.782;37.452;2022-08-01T06:10:22;6.47;;;2.50;;
53881;SDS011;39794;55.782;37.452;2022-08-01T06:12:51;9.15;;;2.15;;
53881;SDS011;39794;55.782;37.452;2022-08-01T06:15:21;7.45;;;2.03;;
53881;SDS011;39794;55.782;37.452;2022-08-01T06:17:51;6.55;;;2.85;;
53881;SDS011;39794;55.782;37.452;2022-08-01T06:20:20;4.28;;;2.28;;
53881;SDS011;39794;55.782;37.452;2022-08-01T06:23:14;9.40;;;2.55;;
53881;SDS011;39794;55.782;37.452;2022-08-01T06:26:00;10.73;;;2.35;;
53881;SDS011;39794;55.782;37.452;2022-08-01T06:28:28;9.18;;;2.28;;
53881;SDS011;39794;55.782;37.452;2022-08-01T06:30:57;12.02;;;2.97;;
53881;SDS011;39794;55.782;37.452;2022-08-01T06:33:27;7.95;;;2.47;;
53881;SDS011;39794;55.782;37.452;2022-08-01T06:35:55;12.23;;;2.97;;
53881;SDS011;39794;55.782;37.452;2022-08-01T06:38:24;9.32;;;1.98;;
53881;SDS011;39794;55.782;37.452;2022-08-01T06:40:54;6.18;;;2.08;;
53881;SDS011;39794;55.782;37.452;2022-08-01T06:43:24;3.35;;;1.60;;
53881;SDS011;39794;55.782;37.452;2022-08-01T06:45:53;4.25;;;1.65;;
53881;SDS011;39794;55.782;37.452;2022-08-01T06:48:22;8.85;;;1.58;;
53881;SDS011;39794;55.782;37.452;2022-08-01T06:50:54;3.30;;;1.50;;
53881;SDS011;39794;55.782;37.452;2022-08-01T06:53:35;3.67;;;1.50;;
53881;SDS011;39794;55.782;37.452;2022-08-01T06:56:05;5.10;;;1.67;;
53881;SDS011;39794;55.782;37.452;2022-08-01T06:58:36;7.45;;;2.03;;
53881;SDS011;39794;55.782;37.452;2022-08-01T07:01:07;6.45;;;1.63;;
53881;SDS011;39794;55.782;37.452;2022-08-01T07:03:41;3.67;;;1.30;;
53881;SDS011;39794;55.782;37.452;2022-08-01T07:06:21;2.30;;;1.25;;
53881;SDS011;39794;55.782;37.452;2022-08-01T07:08:51;6.55;;;2.03;;
53881;SDS011;39794;55.782;37.452;2022-08-01T07:11:22;4.60;;;1.65;;
53881;SDS011;39794;55.782;37.452;2022-08-01T07:13:53;6.90;;;1.60;;
53881;SDS011;39794;55.782;37.452;2022-08-01T07:16:21;5.15;;;1.60;;
53881;SDS011;39794;55.782;37.452;2022-08-01T07:18:50;10.95;;;2.00;;
53881;SDS011;39794;55.782;37.452;2022-08-01T07:21:20;8.77;;;2.00;;
53881;SDS011;39794;55.782;37.452;2022-08-01T07:24:07;10.68;;;2.13;;
53881;SDS011;39794;55.782;37.452;2022-08-01T07:26:43;6.80;;;1.85;;
53881;SDS011;39794;55.782;37.452;2022-08-01T07:29:23;5.85;;;1.83;;
53881;SDS011;39794;55.782;37.452;2022-08-01T07:31:54;4.28;;;1.60;;
53881;SDS011;39794;55.782;37.452;2022-08-01T07:34:24;7.82;;;2.03;;
53881;SDS011;39794;55.782;37.452;2022-08-01T07:36:53;6.00;;;1.80;;
53881;SDS011;39794;55.782;37.452;2022-08-01T07:42:17;5.97;;;1.98;;
53881;SDS011;39794;55.782;37.452;2022-08-01T07:44:50;4.32;;;1.92;;
53881;SDS011;39794;55.782;37.452;2022-08-01T07:47:48;5.70;;;2.13;;
53881;SDS011;39794;55.782;37.452;2022-08-01T07:50:20;4.07;;;2.08;;
53881;SDS011;39794;55.782;37.452;2022-08-01T07:52:50;6.70;;;2.03;;
53881;SDS011;39794;55.782;37.452;2022-08-01T07:55:18;3.03;;;2.13;;
53881;SDS011;39794;55.782;37.452;2022-08-01T07:57:49;5.55;;;2.42;;
53881;SDS011;39794;55.782;37.452;2022-08-01T08:00:19;6.68;;;2.40;;
53881;SDS011;39794;55.782;37.452;2022-08-01T08:03:14;7.53;;;2.50;;
53881;SDS011;39794;55.782;37.452;2022-08-01T08:05:44;11.18;;;2.50;;
53881;SDS011;39794;55.782;37.452;2022-08-01T08:08:24;6.15;;;2.63;;
53881;SDS011;39794;55.782;37.452;2022-08-01T08:10:53;6.95;;;2.40;;
53881;SDS011;39794;55.782;37.452;2022-08-01T08:13:22;10.00;;;2.20;;
53881;SDS011;39794;55.782;37.452;2022-08-01T08:15:52;7.53;;;2.25;;
53881;SDS011;39794;55.782;37.452;2022-08-01T08:18:22;8.13;;;2.70;;
53881;SDS011;39794;55.782;37.452;2022-08-01T08:20:54;8.68;;;2.35;;
53881;SDS011;39794;55.782;37.452;2022-08-01T08:23:24;6.75;;;2.65;;
53881;SDS011;39794;55.782;37.452;2022-08-01T08:26:10;9.30;;;2.40;;
53881;SDS011;39794;55.782;37.452;2022-08-01T08:28:39;9.63;;;2.88;;
53881;SDS011;39794;55.782;37.452;2022-08-01T08:31:09;10.85;;;2.40;;
53881;SDS011;39794;55.782;37.452;2022-08-01T08:33:58;4.63;;;2.03;;
53881;SDS011;39794;55.782;37.452;2022-08-01T08:36:26;6.35;;;1.80;;
53881;SDS011;39794;55.782;37.452;2022-08-01T08:38:57;4.88;;;2.38;;
53881;SDS011;39794;55.782;37.452;2022-08-01T08:41:29;5.80;;;2.20;;
53881;SDS011;39794;55.782;37.452;2022-08-01T08:44:04;7.15;;;2.00;;
53881;SDS011;39794;55.782;37.452;2022-08-01T08:46:40;4.68;;;2.30;;
53881;SDS011;39794;55.782;37.452;2022-08-01T08:52:37;10.48;;;2.00;;
53881;SDS011;39794;55.782;37.452;2022-08-01T08:55:07;6.18;;;2.60;;
53881;SDS011;39794;55.782;37.452;2022-08-01T08:57:42;1.80;;;1.48;;
53881;SDS011;39794;55.782;37.452;2022-08-01T09:00:13;3.90;;;1.80;;
53881;SDS011;39794;55.782;37.452;2022-08-01T09:02:45;3.20;;;1.88;;
53881;SDS011;39794;55.782;37.452;2022-08-01T09:05:15;3.75;;;1.70;;
53881;SDS011;39794;55.782;37.452;2022-08-01T09:08:07;4.07;;;1.83;;
53881;SDS011;39794;55.782;37.452;2022-08-01T09:10:35;4.85;;;1.90;;
53881;SDS011;39794;55.782;37.452;2022-08-01T09:13:06;4.57;;;1.98;;
53881;SDS011;39794;55.782;37.452;2022-08-01T09:15:38;6.23;;;2.20;;
53881;SDS011;39794;55.782;37.452;2022-08-01T09:18:10;3.92;;;1.80;;
53881;SDS011;39794;55.782;37.452;2022-08-01T09:21:10;7.03;;;2.30;;
53881;SDS011;39794;55.782;37.452;2022-08-01T09:23:44;6.65;;;2.38;;
53881;SDS011;39794;55.782;37.452;2022-08-01T09:26:20;5.78;;;2.15;;
53881;SDS011;39794;55.782;37.452;2022-08-01T09:28:52;7.28;;;2.92;;
53881;SDS011;39794;55.782;37.452;2022-08-01T09:31:21;8.80;;;2.78;;
53881;SDS011;39794;55.782;37.452;2022-08-01T09:34:05;8.32;;;2.22;;
53881;SDS011;39794;55.782;37.452;2022-08-01T09:36:44;7.22;;;2.30;;
53881;SDS011;39794;55.782;37.452;2022-08-01T09:42:20;7.97;;;2.10;;
53881;SDS011;39794;55.782;37.452;2022-08-01T09:44:56;7.15;;;2.42;;
53881;SDS011;39794;55.782;37.452;2022-08-01T09:47:36;4.43;;;2.60;;
53881;SDS011;39794;55.782;37.452;2022-08-01T09:50:07;13.10;;;3.13;;
53881;SDS011;39794;55.782;37.452;2022-08-01T09:52:37;4.85;;;2.60;;
53881;SDS011;39794;55.782;37.452;2022-08-01T09:55:07;4.90;;;2.05;;
53881;SDS011;39794;55.782;37.452;2022-08-01T09:57:36;4.60;;;2.53;;
53881;SDS011;39794;55.782;37.452;2022-08-01T10:03:18;3.97;;;2.47;;
53881;SDS011;39794;55.782;37.452;2022-08-01T10:05:51;5.80;;;2.40;;
53881;SDS011;39794;55.782;37.452;2022-08-01T10:08:22;6.13;;;2.30;;
53881;SDS011;39794;55.782;37.452;2022-08-01T10:11:08;5.47;;;2.40;;
53881;SDS011;39794;55.782;37.452;2022-08-01T10:13:39;5.72;;;2.30;;
53881;SDS011;39794;55.782;37.452;2022-08-01T10:16:08;8.05;;;2.15;;
53881;SDS011;39794;55.782;37.452;2022-08-01T10:18:41;8.93;;;3.45;;
53881;SDS011;39794;55.782;37.452;2022-08-01T10:21:13;6.40;;;2.47;;
53881;SDS011;39794;55.782;37.452;2022-08-01T10:24:05;6.05;;;2.50;;
53881;SDS011;39794;55.782;37.452;2022-08-01T10:27:02;6.65;;;2.40;;
53881;SDS011;39794;55.782;37.452;2022-08-01T10:32:49;3.85;;;2.63;;
53881;SDS011;39794;55.782;37.452;2022-08-01T10:35:21;4.32;;;2.33;;
53881;SDS011;39794;55.782;37.452;2022-08-01T10:38:12;6.05;;;2.40;;
53881;SDS011;39794;55.782;37.452;2022-08-01T10:40:45;4.63;;;2.30;;
53881;SDS011;39794;55.782;37.452;2022-08-01T10:43:18;3.35;;;2.20;;
53881;SDS011;39794;55.782;37.452;2022-08-01T10:45:48;7.32;;;2.47;;
53881;SDS011;39794;55.782;37.452;2022-08-01T10:48:18;3.95;;;2.20;;
53881;SDS011;39794;55.782;37.452;2022-08-01T10:50:52;10.43;;;2.60;;
53881;SDS011;39794;55.782;37.452;2022-08-01T10:53:25;5.50;;;2.45;;
53881;SDS011;39794;55.782;37.452;2022-08-01T10:56:08;4.57;;;1.85;;
53881;SDS011;39794;55.782;37.452;2022-08-01T11:02:27;2.60;;;2.05;;
53881;SDS011;39794;55.782;37.452;2022-08-01T11:05:02;5.28;;;1.88;;
53881;SDS011;39794;55.782;37.452;2022-08-01T11:07:42;8.43;;;2.00;;
53881;SDS011;39794;55.782;37.452;2022-08-01T11:10:19;2.72;;;1.92;;
53881;SDS011;39794;55.782;37.452;2022-08-01T11:12:54;7.38;;;2.20;;
53881;SDS011;39794;55.782;37.452;2022-08-01T11:15:23;5.50;;;2.20;;
53881;SDS011;39794;55.782;37.452;2022-08-01T11:17:59;5.13;;;2.28;;
53881;SDS011;39794;55.782;37.452;2022-08-01T11:23:46;4.32;;;2.10;;
53881;SDS011;39794;55.782;37.452;2022-08-01T11:26:20;4.60;;;2.15;;
53881;SDS011;39794;55.782;37.452;2022-08-01T11:29:12;4.03;;;1.75;;
53881;SDS011;39794;55.782;37.452;2022-08-01T11:32:24;3.30;;;1.90;;
53881;SDS011;39794;55.782;37.452;2022-08-01T11:34:58;4.28;;;2.05;;
53881;SDS011;39794;55.782;37.452;2022-08-01T11:37:29;4.60;;;2.20;;
53881;SDS011;39794;55.782;37.452;2022-08-01T11:40:14;2.65;;;1.98;;
53881;SDS011;39794;55.782;37.452;2022-08-01T11:43:19;3.22;;;1.80;;
53881;SDS011;39794;55.782;37.452;2022-08-01T11:45:50;2.88;;;1.65;;
53881;SDS011;39794;55.782;37.452;2022-08-01T11:48:20;7.93;;;1.95;;
53881;SDS011;39794;55.782;37.452;2022-08-01T11:50:56;3.13;;;1.90;;
53881;SDS011;39794;55.782;37.452;2022-08-01T11:53:28;4.88;;;1.88;;
53881;SDS011;39794;55.782;37.452;2022-08-01T11:55:59;3.15;;;2.00;;
53881;SDS011;39794;55.782;37.452;2022-08-01T11:58:29;4.10;;;2.10;;
53881;SDS011;39794;55.782;37.452;2022-08-01T12:03:56;4.00;;;2.30;;
53881;SDS011;39794;55.782;37.452;2022-08-01T12:06:28;2.10;;;1.70;;
53881;SDS011;39794;55.782;37.452;2022-08-01T12:11:45;4.00;;;2.00;;
53881;SDS011;39794;55.782;37.452;2022-08-01T12:17:13;3.08;;;1.83;;
53881;SDS011;39794;55.782;37.452;2022-08-01T12:19:42;4.38;;;2.00;;
53881;SDS011;39794;55.782;37.452;2022-08-01T12:22:13;5.10;;;2.00;;
53881;SDS011;39794;55.782;37.452;2022-08-01T12:24:43;4.43;;;2.03;;
53881;SDS011;39794;55.782;37.452;2022-08-01T12:27:12;5.65;;;1.95;;
53881;SDS011;39794;55.782;37.452;2022-08-01T12:29:55;4.18;;;2.00;;
53881;SDS011;39794;55.782;37.452;2022-08-01T12:32:26;2.97;;;2.03;;
53881;SDS011;39794;55.782;37.452;2022-08-01T12:35:02;4.28;;;1.90;;
53881;SDS011;39794;55.782;37.452;2022-08-01T12:37:34;9.23;;;2.50;;
53881;SDS011;39794;55.782;37.452;2022-08-01T12:40:09;5.28;;;2.30;;
53881;SDS011;39794;55.782;37.452;2022-08-01T12:43:27;5.97;;;2.28;;
53881;SDS011;39794;55.782;37.452;2022-08-01T12:46:02;8.13;;;2.30;;
53881;SDS011;39794;55.782;37.452;2022-08-01T12:48:32;4.20;;;2.13;;
53881;SDS011;39794;55.782;37.452;2022-08-01T12:51:02;6.60;;;2.75;;
53881;SDS011;39794;55.782;37.452;2022-08-01T12:53:33;7.80;;;2.17;;
53881;SDS011;39794;55.782;37.452;2022-08-01T12:56:07;5.25;;;2.28;;
53881;SDS011;39794;55.782;37.452;2022-08-01T12:58:38;3.90;;;2.13;;
53881;SDS011;39794;55.782;37.452;2022-08-01T13:01:08;11.60;;;2.70;;
53881;SDS011;39794;55.782;37.452;2022-08-01T13:03:39;6.38;;;2.45;;
53881;SDS011;39794;55.782;37.452;2022-08-01T13:06:11;5.03;;;2.50;;
53881;SDS011;39794;55.782;37.452;2022-08-01T13:08:43;6.47;;;2.78;;
53881;SDS011;39794;55.782;37.452;2022-08-01T13:11:13;6.93;;;2.60;;
53881;SDS011;39794;55.782;37.452;2022-08-01T13:14:26;12.15;;;4.15;;
53881;SDS011;39794;55.782;37.452;2022-08-01T13:16:58;10.82;;;3.50;;
53881;SDS011;39794;55.782;37.452;2022-08-01T13:19:41;7.07;;;3.42;;
53881;SDS011;39794;55.782;37.452;2022-08-01T13:22:13;11.48;;;3.28;;
53881;SDS011;39794;55.782;37.452;2022-08-01T13:24:44;6.53;;;2.55;;
53881;SDS011;39794;55.782;37.452;2022-08-01T13:27:19;5.85;;;2.95;;
53881;SDS011;39794;55.782;37.452;2022-08-01T13:29:54;7.03;;;2.90;;
53881;SDS011;39794;55.782;37.452;2022-08-01T13:32:44;7.18;;;2.40;;
53881;SDS011;39794;55.782;37.452;2022-08-01T13:35:25;4.43;;;2.67;;
53881;SDS011;39794;55.782;37.452;2022-08-01T13:37:54;3.95;;;2.33;;
53881;SDS011;39794;55.782;37.452;2022-08-01T13:40:24;7.22;;;2.17;;
53881;SDS011;39794;55.782;37.452;2022-08-01T13:42:56;6.10;;;2.22;;
53881;SDS011;39794;55.782;37.452;2022-08-01T13:45:24;7.35;;;2.83;;
53881;SDS011;39794;55.782;37.452;2022-08-01T13:47:56;5.78;;;2.25;;
53881;SDS011;39794;55.782;37.452;2022-08-01T13:50:40;4.32;;;2.55;;
53881;SDS011;39794;55.782;37.452;2022-08-01T13:53:09;6.03;;;2.42;;
53881;SDS011;39794;55.782;37.452;2022-08-01T13:55:38;6.03;;;2.67;;
53881;SDS011;39794;55.782;37.452;2022-08-01T13:58:07;7.65;;;2.65;;
53881;SDS011;39794;55.782;37.452;2022-08-01T14:00:35;7.47;;;2.90;;
53881;SDS011;39794;55.782;37.452;2022-08-01T14:03:08;7.72;;;2.92;;
53881;SDS011;39794;55.782;37.452;2022-08-01T14:05:39;4.90;;;2.17;;
53881;SDS011;39794;55.782;37.452;2022-08-01T14:08:13;6.85;;;2.63;;
53881;SDS011;39794;55.782;37.452;2022-08-01T14:10:42;7.63;;;2.83;;
53881;SDS011;39794;55.782;37.452;2022-08-01T14:13:13;7.85;;;2.85;;
53881;SDS011;39794;55.782;37.452;2022-08-01T14:15:42;4.53;;;2.80;;
53881;SDS011;39794;55.782;37.452;2022-08-01T14:18:17;9.20;;;2.70;;
53881;SDS011;39794;55.782;37.452;2022-08-01T14:20:46;7.05;;;2.50;;
53881;SDS011;39794;55.782;37.452;2022-08-01T14:24:07;5.78;;;2.22;;
53881;SDS011;39794;55.782;37.452;2022-08-01T14:26:40;4.95;;;2.35;;
53881;SDS011;39794;55.782;37.452;2022-08-01T14:29:10;6.50;;;2.63;;
53881;SDS011;39794;55.782;37.452;2022-08-01T14:32:03;8.32;;;2.60;;
53881;SDS011;39794;55.782;37.452;2022-08-01T14:34:39;7.70;;;3.60;;
53881;SDS011;39794;55.782;37.452;2022-08-01T14:37:11;6.80;;;3.00;;
53881;SDS011;39794;55.782;37.452;2022-08-01T14:39:49;10.35;;;3.47;;
53881;SDS011;39794;55.782;37.452;2022-08-01T14:42:41;8.45;;;2.75;;
53881;SDS011;39794;55.782;37.452;2022-08-01T14:47:53;7.53;;;2.83;;
53881;SDS011;39794;55.782;37.452;2022-08-01T14:50:26;7.53;;;2.60;;
53881;SDS011;39794;55.782;37.452;2022-08-01T14:53:22;3.67;;;2.45;;
53881;SDS011;39794;55.782;37.452;2022-08-01T14:56:00;2.90;;;2.30;;
53881;SDS011;39794;55.782;37.452;2022-08-01T14:58:35;5.45;;;2.13;;
53881;SDS011;39794;55.782;37.452;2022-08-01T15:01:11;5.03;;;2.60;;
53881;SDS011;39794;55.782;37.452;2022-08-01T15:03:46;6.93;;;2.65;;
53881;SDS011;39794;55.782;37.452;2022-08-01T15:06:21;9.68;;;3.38;;
53881;SDS011;39794;55.782;37.452;2022-08-01T15:08:51;6.32;;;2.10;;
53881;SDS011;39794;55.782;37.452;2022-08-01T15:11:23;7.75;;;2.25;;
53881;SDS011;39794;55.782;37.452;2022-08-01T15:14:05;5.25;;;1.98;;
53881;SDS011;39794;55.782;37.452;2022-08-01T15:16:51;5.30;;;2.45;;
53881;SDS011;39794;55.782;37.452;2022-08-01T15:22:28;7.05;;;2.50;;
53881;SDS011;39794;55.782;37.452;2022-08-01T15:24:58;6.53;;;2.58;;
53881;SDS011;39794;55.782;37.452;2022-08-01T15:27:29;10.30;;;2.30;;
53881;SDS011;39794;55.782;37.452;2022-08-01T15:30:02;8.48;;;2.05;;
53881;SDS011;39794;55.782;37.452;2022-08-01T15:32:37;3.28;;;2.55;;
53881;SDS011;39794;55.782;37.452;2022-08-01T15:35:18;4.65;;;2.35;;
53881;SDS011;39794;55.782;37.452;2022-08-01T15:37:51;3.08;;;2.00;;
53881;SDS011;39794;55.782;37.452;2022-08-01T15:43:28;8.90;;;2.10;;
53881;SDS011;39794;55.782;37.452;2022-08-01T15:45:58;5.15;;;2.22;;
53881;SDS011;39794;55.782;37.452;2022-08-01T15:48:28;4.10;;;1.95;;
53881;SDS011;39794;55.782;37.452;2022-08-01T15:51:09;6.57;;;3.15;;
53881;SDS011;39794;55.782;37.452;2022-08-01T15:53:52;5.32;;;2.42;;
53881;SDS011;39794;55.782;37.452;2022-08-01T15:56:24;10.98;;;3.22;;
53881;SDS011;39794;55.782;37.452;2022-08-01T15:58:59;4.95;;;2.05;;
53881;SDS011;39794;55.782;37.452;2022-08-01T16:02:01;5.97;;;2.45;;
53881;SDS011;39794;55.782;37.452;2022-08-01T16:04:45;9.02;;;2.28;;
53881;SDS011;39794;55.782;37.452;2022-08-01T16:07:46;3.97;;;2.33;;
53881;SDS011;39794;55.782;37.452;2022-08-01T16:10:44;7.38;;;2.58;;
53881;SDS011;39794;55.782;37.452;2022-08-01T16:13:21;5.18;;;2.20;;
53881;SDS011;39794;55.782;37.452;2022-08-01T16:15:52;6.97;;;2.50;;
53881;SDS011;39794;55.782;37.452;2022-08-01T16:18:29;4.05;;;2.15;;
53881;SDS011;39794;55.782;37.452;2022-08-01T16:20:59;6.93;;;1.90;;
53881;SDS011;39794;55.782;37.452;2022-08-01T16:27:12;5.57;;;2.10;;
53881;SDS011;39794;55.782;37.452;2022-08-01T16:29:51;6.40;;;2.58;;
53881;SDS011;39794;55.782;37.452;2022-08-01T16:32:40;8.27;;;2.25;;